Time;durP1;ratioP1;P1;durP2;ratioP2;P2;SDS_P1;SDS_P2;PMS_P1;PMS_P2;Temp;Humidity;BMP_temperature;BMP_pressure;BME280_temperature;BME280_humidity;BME280_pressure;Samples;Min_cycle;Max_cycle;Signal;HPM_P1;HPM_P2
2022/02/07 00:00:21;;;;;;;1.52;0.90;;;3.70;92.70;;;;;;5044050;28;20402;-72
2022/02/07 00:05:26;;;;;;;2.75;1.27;;;2.50;96.20;;;;;;5047974;28;20028;-73
2022/02/07 00:07:52;;;;;;;3.53;1.60;;;2.00;93.20;;;;;;5040685;28;20018;-75
2022/02/07 00:10:18;;;;;;;2.63;1.20;;;1.90;90.80;;;;;;5040250;28;20080;-75
2022/02/07 00:12:46;;;;;;;2.72;1.20;;;1.90;89.50;;;;;;5053975;28;20310;-76
2022/02/07 00:15:16;;;;;;;1.27;0.95;;;1.80;89.50;;;;;;5044703;28;20132;-75
2022/02/07 00:17:42;;;;;;;2.28;1.23;;;1.60;89.90;;;;;;5042965;28;20159;-74
2022/02/07 00:20:14;;;;;;;3.28;1.60;;;1.50;89.00;;;;;;5051954;28;20025;-74
2022/02/07 00:22:40;;;;;;;4.25;1.50;;;1.40;89.20;;;;;;5039424;28;20029;-73
2022/02/07 00:25:07;;;;;;;3.60;1.50;;;1.20;89.60;;;;;;5041736;28;20037;-73
2022/02/07 00:27:33;;;;;;;2.83;1.10;;;1.00;88.80;;;;;;5045643;28;20128;-73
2022/02/07 00:29:58;;;;;;;2.90;1.60;;;1.00;87.40;;;;;;5040416;28;20154;-75
2022/02/07 00:32:24;;;;;;;2.75;1.30;;;0.90;87.90;;;;;;5039586;28;20426;-74
2022/02/07 00:34:50;;;;;;;3.72;1.08;;;0.80;87.90;;;;;;5042423;28;20484;-73
2022/02/07 00:37:15;;;;;;;3.58;1.67;;;0.70;87.30;;;;;;5058551;28;20031;-73
2022/02/07 00:39:50;;;;;;;2.83;1.42;;;0.70;87.20;;;;;;5048338;28;20108;-73
2022/02/07 00:42:30;;;;;;;6.68;1.25;;;0.60;87.00;;;;;;5046375;28;20032;-72
2022/02/07 00:45:00;;;;;;;5.30;1.60;;;0.60;87.00;;;;;;5042474;28;20033;-72
2022/02/07 00:47:26;;;;;;;4.82;1.23;;;0.50;86.70;;;;;;5057002;28;20033;-71
2022/02/07 00:49:53;;;;;;;6.93;1.40;;;0.50;86.60;;;;;;5045410;28;20030;-70
2022/02/07 00:52:23;;;;;;;1.50;1.15;;;0.40;86.60;;;;;;5039326;28;20082;-70
2022/02/07 00:54:49;;;;;;;1.73;1.17;;;0.40;86.50;;;;;;5047551;28;20170;-70
2022/02/07 00:57:15;;;;;;;4.05;1.42;;;0.40;86.20;;;;;;5053453;28;20442;-72
2022/02/07 00:59:40;;;;;;;7.18;3.38;;;0.40;86.10;;;;;;5057608;28;20057;-72
2022/02/07 01:02:06;;;;;;;2.13;1.10;;;0.40;85.80;;;;;;5039940;28;20393;-72
2022/02/07 01:04:31;;;;;;;1.65;1.00;;;0.30;86.00;;;;;;5052765;28;20105;-72
2022/02/07 01:06:57;;;;;;;1.30;1.00;;;0.30;86.00;;;;;;5051457;28;20108;-72
2022/02/07 01:09:31;;;;;;;1.45;1.15;;;0.30;85.80;;;;;;5052859;28;20024;-71
2022/02/07 01:12:10;;;;;;;1.20;1.02;;;0.30;85.40;;;;;;5048095;28;20033;-72
2022/02/07 01:15:00;;;;;;;1.70;1.10;;;0.20;85.50;;;;;;5050549;28;20337;-72
2022/02/07 01:50:46;;;;;;;1.60;1.17;;;0.30;87.50;;;;;;5049262;28;20021;-72
2022/02/07 01:55:39;;;;;;;1.70;1.17;;;0.40;88.30;;;;;;5047076;28;20342;-72
2022/02/07 01:58:05;;;;;;;2.65;1.55;;;0.30;88.90;;;;;;5044928;28;20322;-72
2022/02/07 02:00:32;;;;;;;2.10;1.10;;;0.40;89.40;;;;;;5047028;28;20036;-72
2022/02/07 02:02:58;;;;;;;4.22;1.40;;;0.40;89.70;;;;;;5047589;28;20068;-71
2022/02/07 02:05:24;;;;;;;2.38;1.10;;;0.40;90.10;;;;;;5051561;28;20370;-72
2022/02/07 02:07:50;;;;;;;2.45;1.20;;;0.40;90.50;;;;;;5039098;28;20075;-72
2022/02/07 02:10:16;;;;;;;2.92;1.20;;;0.40;90.80;;;;;;5045265;28;20034;-72
2022/02/07 02:12:55;;;;;;;3.13;1.23;;;0.40;90.90;;;;;;5050493;28;20033;-72
2022/02/07 02:15:33;;;;;;;1.50;1.00;;;0.40;91.10;;;;;;5043130;28;20017;-72
2022/02/07 02:47:20;;;;;;;2.60;1.30;;;0.60;93.40;;;;;;5041912;28;20050;-73
2022/02/07 02:49:59;;;;;;;3.40;1.60;;;0.60;92.60;;;;;;5047851;28;20475;-73
2022/02/07 02:52:25;;;;;;;2.25;1.25;;;0.60;92.30;;;;;;5045507;28;20072;-73
2022/02/07 02:54:51;;;;;;;3.88;1.30;;;0.60;91.70;;;;;;5046271;28;20024;-72
2022/02/07 02:57:16;;;;;;;3.45;1.15;;;0.60;91.70;;;;;;5040496;28;20029;-73
2022/02/07 02:59:42;;;;;;;2.15;1.10;;;0.60;91.60;;;;;;5038555;28;20032;-72
2022/02/07 03:02:07;;;;;;;3.70;1.30;;;0.60;91.60;;;;;;5044584;28;20129;-72
2022/02/07 03:04:33;;;;;;;4.70;1.40;;;0.70;91.80;;;;;;5061813;28;20031;-71
2022/02/07 03:06:59;;;;;;;2.72;1.33;;;0.70;92.40;;;;;;5055297;28;20064;-72
2022/02/07 03:09:24;;;;;;;2.83;1.48;;;0.70;92.20;;;;;;5052457;28;20088;-72
2022/02/07 03:11:51;;;;;;;3.85;1.30;;;0.70;91.90;;;;;;5047263;28;20535;-72
2022/02/07 03:14:23;;;;;;;3.65;1.45;;;0.60;91.70;;;;;;5046222;28;20036;-72
2022/02/07 03:16:50;;;;;;;2.15;1.33;;;0.60;90.80;;;;;;5045489;28;20026;-71
2022/02/07 03:19:17;;;;;;;5.22;1.80;;;0.70;90.70;;;;;;5043786;28;20024;-72
2022/02/07 03:21:44;;;;;;;5.50;1.80;;;0.70;90.80;;;;;;5040177;28;20017;-72
2022/02/07 03:24:10;;;;;;;7.00;2.63;;;0.70;91.70;;;;;;5043537;28;20461;-72
2022/02/07 03:26:42;;;;;;;6.05;1.75;;;0.80;93.70;;;;;;5037481;28;20143;-72
2022/02/07 03:29:09;;;;;;;8.73;2.25;;;0.80;94.90;;;;;;5045507;28;20028;-72
2022/02/07 03:31:35;;;;;;;5.95;1.98;;;0.90;96.80;;;;;;5044816;28;20035;-72
2022/02/07 03:34:00;;;;;;;4.38;1.90;;;0.90;96.70;;;;;;5034993;28;20030;-73
2022/02/07 03:36:31;;;;;;;4.40;1.80;;;0.90;97.20;;;;;;5043130;28;20032;-72
2022/02/07 03:38:58;;;;;;;5.95;2.53;;;0.90;98.00;;;;;;5043011;28;20018;-72
2022/02/07 03:41:24;;;;;;;7.22;2.13;;;0.90;98.00;;;;;;5037672;28;20028;-71
2022/02/07 03:43:50;;;;;;;5.55;2.10;;;0.90;98.00;;;;;;5052845;28;20029;-71
2022/02/07 03:46:19;;;;;;;5.25;2.28;;;0.90;98.00;;;;;;5041193;28;20108;-71
2022/02/07 03:48:47;;;;;;;7.22;2.13;;;0.90;98.00;;;;;;5038574;28;20098;-71
2022/02/07 03:51:13;;;;;;;5.65;1.83;;;0.90;98.00;;;;;;5039664;28;20086;-73
2022/02/07 03:53:39;;;;;;;7.65;2.30;;;0.90;98.00;;;;;;5041427;28;20030;-73
2022/02/07 03:56:06;;;;;;;6.10;2.00;;;0.90;98.00;;;;;;5039767;28;20096;-73
2022/02/07 03:58:32;;;;;;;4.88;2.08;;;0.90;98.00;;;;;;5042636;28;20048;-73
2022/02/07 04:00:58;;;;;;;5.57;1.90;;;0.90;98.00;;;;;;5049587;28;20028;-72
2022/02/07 04:03:28;;;;;;;6.80;2.03;;;0.90;98.00;;;;;;5047717;28;20325;-72
2022/02/07 04:05:59;;;;;;;14.00;3.42;;;0.80;98.00;;;;;;5039711;28;20061;-72
2022/02/07 04:08:36;;;;;;;7.75;2.40;;;0.80;98.00;;;;;;5047103;28;20099;-72
2022/02/07 04:13:35;;;;;;;5.18;1.95;;;0.80;98.00;;;;;;5038832;28;20048;-72
2022/02/07 04:16:03;;;;;;;5.03;2.05;;;0.80;98.00;;;;;;5046758;28;20299;-72
2022/02/07 04:18:45;;;;;;;7.70;2.30;;;0.80;98.00;;;;;;5040111;28;20032;-72
2022/02/07 04:21:11;;;;;;;8.18;2.17;;;0.80;98.00;;;;;;5037739;28;20104;-71
2022/02/07 04:23:36;;;;;;;5.47;2.05;;;0.90;98.00;;;;;;5041718;28;20101;-72
2022/02/07 04:26:02;;;;;;;9.00;2.60;;;0.90;98.00;;;;;;5036165;28;20049;-72
2022/02/07 04:28:28;;;;;;;9.95;2.95;;;0.80;98.00;;;;;;5045019;28;20033;-71
2022/02/07 04:30:53;;;;;;;9.93;2.67;;;0.80;97.50;;;;;;5041838;28;20017;-72
2022/02/07 04:33:19;;;;;;;5.00;1.70;;;0.80;97.10;;;;;;5042867;28;20124;-72
2022/02/07 04:35:44;;;;;;;7.78;1.80;;;0.60;97.50;;;;;;5043799;28;20023;-72
2022/02/07 04:38:10;;;;;;;4.53;1.80;;;0.20;95.60;;;;;;5047773;28;20028;-72
2022/02/07 04:40:36;;;;;;;6.18;2.05;;;0.10;94.20;;;;;;5052180;28;20037;-71
2022/02/07 04:43:03;;;;;;;5.65;2.10;;;0.00;93.60;;;;;;5048061;28;20026;-72
2022/02/07 04:45:40;;;;;;;6.82;2.40;;;0.00;93.00;;;;;;5041065;28;20020;-72
2022/02/07 04:53:37;;;;;;;5.43;3.03;;;-0.10;91.70;;;;;;5053313;28;20056;-72
2022/02/07 05:04:20;;;;;;;4.75;2.40;;;-0.10;89.90;;;;;;5052501;28;20376;-71
2022/02/07 05:15:15;;;;;;;7.25;2.67;;;-0.20;89.00;;;;;;5045577;28;20043;-72
2022/02/07 05:17:40;;;;;;;4.45;2.20;;;-0.10;89.20;;;;;;5050746;28;20045;-72
2022/02/07 05:20:08;;;;;;;4.97;2.30;;;-0.10;89.50;;;;;;5041450;28;20067;-71
2022/02/07 05:22:34;;;;;;;6.15;2.60;;;-0.10;89.50;;;;;;5056878;28;20021;-72
2022/02/07 05:25:00;;;;;;;7.38;2.80;;;-0.10;90.20;;;;;;5049956;28;20110;-71
2022/02/07 05:27:25;;;;;;;8.98;3.20;;;-0.10;90.40;;;;;;5054178;28;20024;-71
2022/02/07 05:29:51;;;;;;;5.65;2.97;;;-0.10;89.90;;;;;;5052814;28;20020;-71
2022/02/07 05:32:17;;;;;;;5.35;2.47;;;-0.10;89.80;;;;;;5049280;28;20104;-72
2022/02/07 05:34:44;;;;;;;9.98;5.20;;;-0.20;90.10;;;;;;5055068;28;20052;-72
2022/02/07 05:37:12;;;;;;;4.97;2.95;;;-0.20;89.90;;;;;;5044711;28;20350;-72
2022/02/07 05:39:39;;;;;;;6.13;3.20;;;-0.30;89.90;;;;;;5049847;28;20370;-72
2022/02/07 05:42:06;;;;;;;6.47;3.28;;;-0.30;89.60;;;;;;5046717;28;20053;-72
2022/02/07 05:44:38;;;;;;;5.65;3.45;;;-0.30;89.70;;;;;;5053127;28;20021;-72
2022/02/07 05:47:05;;;;;;;10.95;6.72;;;-0.40;89.70;;;;;;5038062;28;20044;-71
2022/02/07 05:49:31;;;;;;;11.80;7.13;;;-0.40;89.00;;;;;;5044852;28;20044;-71
2022/02/07 05:51:59;;;;;;;10.05;6.03;;;-0.40;89.00;;;;;;5049336;28;20024;-71
2022/02/07 05:54:25;;;;;;;12.32;6.68;;;-0.40;88.70;;;;;;5042675;28;20087;-72
2022/02/07 05:56:51;;;;;;;10.02;4.72;;;-0.30;87.90;;;;;;5044132;28;20021;-71
2022/02/07 05:59:16;;;;;;;12.60;6.25;;;-0.20;87.00;;;;;;5051157;28;20025;-71
2022/02/07 06:01:42;;;;;;;8.70;4.57;;;-0.10;87.70;;;;;;5044728;28;20033;-72
2022/02/07 06:04:07;;;;;;;7.65;4.20;;;0.00;87.60;;;;;;5041177;28;20029;-72
2022/02/07 06:06:33;;;;;;;9.88;4.30;;;0.00;87.80;;;;;;5044784;28;20030;-72
2022/02/07 06:08:59;;;;;;;9.25;4.05;;;0.10;87.80;;;;;;5049264;28;20033;-72
2022/02/07 06:11:24;;;;;;;8.57;4.13;;;0.10;88.20;;;;;;5040459;28;20053;-72
2022/02/07 06:13:50;;;;;;;8.70;3.67;;;0.20;88.70;;;;;;5048024;28;20120;-71
2022/02/07 06:16:18;;;;;;;9.57;3.00;;;0.10;89.10;;;;;;5056940;28;20029;-71
2022/02/07 06:18:49;;;;;;;9.68;3.03;;;0.20;89.90;;;;;;5044649;28;20040;-72
2022/02/07 06:21:15;;;;;;;5.75;2.83;;;0.20;90.80;;;;;;5042254;28;20318;-72
2022/02/07 06:23:47;;;;;;;9.32;4.95;;;0.10;91.50;;;;;;5048647;28;20033;-72
2022/02/07 06:26:13;;;;;;;17.20;4.95;;;0.10;92.10;;;;;;5041308;28;20487;-71
2022/02/07 06:28:39;;;;;;;7.05;3.08;;;0.10;92.60;;;;;;5047403;28;20325;-72
2022/02/07 06:31:11;;;;;;;6.22;2.47;;;0.10;93.40;;;;;;5055339;28;20040;-72
2022/02/07 06:33:36;;;;;;;6.95;2.72;;;0.10;94.20;;;;;;5039805;28;20460;-70
2022/02/07 06:36:02;;;;;;;9.07;4.10;;;0.10;95.00;;;;;;5044982;28;20065;-68
2022/02/07 06:38:28;;;;;;;11.02;5.57;;;0.10;95.00;;;;;;5036460;28;20032;-69
2022/02/07 06:40:54;;;;;;;11.80;5.00;;;0.10;94.70;;;;;;5042386;28;20547;-69
2022/02/07 06:43:19;;;;;;;11.18;4.05;;;0.10;95.50;;;;;;5048132;28;20033;-69
2022/02/07 06:45:45;;;;;;;11.90;4.97;;;0.10;95.80;;;;;;5055462;28;20104;-72
2022/02/07 06:48:10;;;;;;;7.57;3.00;;;0.10;96.40;;;;;;5040529;28;20029;-71
2022/02/07 06:50:36;;;;;;;12.48;3.40;;;0.10;96.60;;;;;;5046442;28;20036;-70
2022/02/07 06:53:02;;;;;;;10.90;3.05;;;0.10;97.10;;;;;;5036269;28;20018;-71
2022/02/07 06:55:28;;;;;;;10.57;3.50;;;0.10;97.80;;;;;;5047653;28;20033;-71
2022/02/07 06:57:54;;;;;;;8.25;3.17;;;0.20;97.60;;;;;;5052521;28;20433;-71
2022/02/07 07:00:19;;;;;;;8.05;2.60;;;0.20;98.00;;;;;;5048126;28;20029;-70
2022/02/07 07:02:47;;;;;;;9.48;3.63;;;0.20;98.00;;;;;;5035373;28;20108;-72
2022/02/07 07:05:21;;;;;;;11.90;4.30;;;0.20;98.00;;;;;;5036455;28;20411;-70
2022/02/07 07:07:47;;;;;;;7.85;2.90;;;0.20;98.00;;;;;;5036344;28;20461;-70
2022/02/07 07:10:13;;;;;;;9.50;3.83;;;0.20;98.00;;;;;;5045128;28;20029;-70
2022/02/07 07:12:42;;;;;;;9.45;2.40;;;0.20;98.00;;;;;;5055916;28;20047;-71
2022/02/07 07:17:34;;;;;;;9.73;3.20;;;0.20;98.00;;;;;;5039983;28;20104;-71
2022/02/07 07:20:02;;;;;;;11.23;3.20;;;0.30;98.00;;;;;;5051651;28;20025;-70
2022/02/07 07:22:30;;;;;;;8.50;2.67;;;0.20;98.00;;;;;;5039794;28;20021;-70
2022/02/07 07:24:56;;;;;;;14.32;5.28;;;0.30;98.00;;;;;;5055834;28;20032;-71
2022/02/07 07:27:25;;;;;;;7.50;3.50;;;0.30;98.00;;;;;;5054298;28;20029;-70
2022/02/07 07:29:51;;;;;;;14.73;4.35;;;0.30;98.00;;;;;;5056056;28;20090;-71
2022/02/07 07:32:23;;;;;;;11.93;3.78;;;0.30;98.00;;;;;;5050847;28;20108;-71
2022/02/07 07:34:48;;;;;;;16.08;5.32;;;0.30;98.00;;;;;;5039098;28;20032;-71
2022/02/07 07:37:14;;;;;;;18.45;7.68;;;0.30;98.00;;;;;;5053060;28;20059;-71
2022/02/07 07:39:41;;;;;;;24.92;9.32;;;0.30;98.00;;;;;;5037382;28;20018;-70
2022/02/07 07:42:07;;;;;;;16.63;7.80;;;0.30;98.00;;;;;;5036254;28;20093;-71
2022/02/07 07:44:35;;;;;;;11.23;4.80;;;0.30;98.00;;;;;;5055781;28;20079;-70
2022/02/07 07:47:24;;;;;;;10.18;4.43;;;0.30;98.00;;;;;;5054720;28;20052;-70
2022/02/07 07:50:15;;;;;;;21.92;7.00;;;0.40;98.00;;;;;;5036655;28;20422;-70
2022/02/07 07:53:09;;;;;;;16.50;7.43;;;0.40;98.00;;;;;;5037860;28;20418;-70
2022/02/07 08:03:40;;;;;;;13.15;4.22;;;0.50;98.00;;;;;;5058483;28;19919;-70
2022/02/07 08:06:14;;;;;;;5.80;2.88;;;0.50;98.00;;;;;;5049863;28;20033;-70
2022/02/07 08:08:48;;;;;;;;;;;0.50;98.00;;;;;;5053390;28;20033;-71
2022/02/07 08:11:15;;;;;;;13.18;5.07;;;0.50;98.00;;;;;;5058778;28;19962;-71
2022/02/07 08:13:43;;;;;;;10.43;4.45;;;0.50;98.00;;;;;;5059303;28;20032;-71
2022/02/07 08:16:10;;;;;;;12.25;4.95;;;0.50;98.00;;;;;;5050942;28;20021;-71
2022/02/07 08:18:36;;;;;;;12.00;4.28;;;0.40;98.00;;;;;;5038278;28;20418;-71
2022/02/07 08:21:03;;;;;;;12.02;4.47;;;0.40;98.00;;;;;;5045281;28;20090;-71
2022/02/07 08:23:29;;;;;;;10.80;5.07;;;0.50;98.00;;;;;;5049215;28;20426;-70
2022/02/07 08:25:57;;;;;;;10.35;4.43;;;0.50;98.00;;;;;;5048299;28;20056;-71
2022/02/07 08:28:25;;;;;;;10.63;3.83;;;0.50;98.00;;;;;;5050312;28;20029;-70
2022/02/07 08:30:51;;;;;;;10.77;4.57;;;0.60;98.00;;;;;;5047153;28;20029;-69
2022/02/07 08:33:16;;;;;;;19.98;7.78;;;0.50;98.00;;;;;;5052638;28;20029;-70
2022/02/07 08:35:42;;;;;;;16.63;5.68;;;0.60;98.00;;;;;;5039233;28;20026;-69
2022/02/07 08:38:08;;;;;;;17.63;6.78;;;0.60;98.00;;;;;;5041815;28;20017;-70
2022/02/07 08:40:33;;;;;;;17.17;6.85;;;0.70;98.00;;;;;;5059034;28;20075;-70
2022/02/07 08:43:00;;;;;;;17.60;6.60;;;0.70;98.00;;;;;;5055929;28;20021;-70
2022/02/07 08:45:26;;;;;;;15.80;6.13;;;0.80;98.00;;;;;;5040211;28;20151;-70
2022/02/07 08:47:56;;;;;;;22.63;9.15;;;0.80;98.00;;;;;;5037870;28;20026;-70
2022/02/07 08:50:23;;;;;;;17.05;5.07;;;0.80;98.00;;;;;;5058758;28;20108;-70
2022/02/07 08:52:51;;;;;;;13.48;5.55;;;0.80;98.00;;;;;;5058914;28;20027;-70
2022/02/07 08:55:26;;;;;;;12.57;4.22;;;0.80;98.00;;;;;;5039863;28;20120;-70
2022/02/07 08:57:57;;;;;;;11.93;3.90;;;0.90;98.00;;;;;;5049083;28;20071;-70
2022/02/07 09:00:38;;;;;;;9.77;4.20;;;0.80;98.00;;;;;;5042788;28;20410;-70
2022/02/07 09:03:17;;;;;;;10.85;3.55;;;1.00;98.00;;;;;;5057526;28;20056;-70
2022/02/07 09:08:52;;;;;;;11.80;3.45;;;1.00;98.00;;;;;;5037391;28;20030;-70
2022/02/07 09:11:18;;;;;;;9.05;3.25;;;1.00;98.00;;;;;;5045095;28;20040;-69
2022/02/07 09:13:46;;;;;;;12.02;4.20;;;1.00;98.00;;;;;;5037417;28;20026;-70
2022/02/07 09:18:41;;;;;;;11.85;5.35;;;0.90;98.00;;;;;;5057099;28;20033;-70
2022/02/07 09:21:08;;;;;;;11.85;5.65;;;0.90;98.00;;;;;;5058197;28;20017;-70
2022/02/07 09:23:39;;;;;;;11.02;4.40;;;0.90;98.00;;;;;;5058063;28;20017;-70
2022/02/07 09:26:05;;;;;;;10.65;4.03;;;0.90;98.00;;;;;;5056533;28;20052;-70
2022/02/07 09:28:32;;;;;;;14.77;4.60;;;0.90;98.00;;;;;;5052485;28;20097;-71
2022/02/07 09:30:58;;;;;;;14.35;4.80;;;1.00;98.00;;;;;;5047206;28;20192;-68
2022/02/07 09:33:24;;;;;;;15.27;5.55;;;1.00;98.00;;;;;;5036812;28;20022;-68
2022/02/07 09:35:51;;;;;;;16.70;4.95;;;1.00;98.00;;;;;;5055713;28;20036;-68
2022/02/07 09:38:18;;;;;;;14.15;4.32;;;1.00;98.00;;;;;;5058067;28;20033;-68
2022/02/07 09:40:52;;;;;;;15.25;5.15;;;1.00;98.00;;;;;;5055038;28;20025;-70
2022/02/07 09:43:25;;;;;;;12.93;4.90;;;0.90;98.00;;;;;;5057889;28;20025;-70
2022/02/07 09:45:51;;;;;;;17.23;5.43;;;0.90;98.00;;;;;;5045112;28;20437;-70
2022/02/07 09:48:17;;;;;;;11.93;4.57;;;0.90;98.00;;;;;;5036625;28;20067;-70
2022/02/07 09:50:46;;;;;;;21.65;6.22;;;0.90;98.00;;;;;;5052669;28;20021;-71
2022/02/07 09:53:12;;;;;;;12.85;5.45;;;0.90;98.00;;;;;;5056042;28;20051;-71
2022/02/07 09:55:38;;;;;;;14.45;5.00;;;0.90;98.00;;;;;;5037521;28;20025;-69
2022/02/07 09:58:04;;;;;;;13.70;5.65;;;1.00;98.00;;;;;;5040702;28;20029;-69
2022/02/07 10:00:36;;;;;;;18.33;7.13;;;1.00;98.00;;;;;;5037490;28;20018;-69
2022/02/07 10:03:18;;;;;;;12.05;5.15;;;1.00;98.00;;;;;;5046690;28;20083;-69
2022/02/07 10:05:53;;;;;;;14.82;5.32;;;1.10;98.00;;;;;;5057507;28;20025;-70
2022/02/07 10:19:08;;;;;;;18.35;5.47;;;1.10;98.00;;;;;;5036011;28;20371;-70
2022/02/07 10:38:42;;;;;;;13.20;4.47;;;1.30;98.00;;;;;;5056774;28;20117;-70
2022/02/07 10:41:38;;;;;;;14.68;4.57;;;1.30;98.00;;;;;;5047091;28;20076;-69
2022/02/07 10:44:04;;;;;;;19.02;6.60;;;1.40;98.00;;;;;;5046833;28;20072;-69
2022/02/07 10:46:34;;;;;;;9.77;4.13;;;1.40;98.00;;;;;;5056173;28;20104;-70
2022/02/07 10:49:09;;;;;;;15.23;5.05;;;1.50;98.00;;;;;;5035050;28;20026;-69
2022/02/07 10:51:37;;;;;;;15.75;6.28;;;1.50;98.00;;;;;;5037035;28;20025;-70
2022/02/07 10:54:11;;;;;;;15.73;6.10;;;1.60;98.00;;;;;;5055521;28;20083;-71
2022/02/07 10:56:45;;;;;;;10.20;4.63;;;1.60;98.00;;;;;;5054675;28;20374;-70
2022/02/07 10:59:14;;;;;;;17.17;6.22;;;1.70;98.00;;;;;;5053292;28;20087;-69
2022/02/07 11:04:15;;;;;;;20.42;5.55;;;1.70;98.00;;;;;;5036396;28;20322;-70
2022/02/07 11:06:45;;;;;;;19.20;4.82;;;1.70;98.00;;;;;;5036458;28;20036;-70
2022/02/07 11:12:07;;;;;;;;;;;1.80;98.00;;;;;;5046039;28;20067;-71
2022/02/07 11:14:48;;;;;;;18.73;4.40;;;1.90;98.00;;;;;;5056039;28;19908;-70
2022/02/07 11:28:13;;;;;;;14.77;3.88;;;1.70;98.00;;;;;;5051207;28;20053;-70
2022/02/07 11:30:53;;;;;;;15.90;4.00;;;2.00;98.00;;;;;;5036153;28;20067;-70
2022/02/07 11:33:50;;;;;;;11.88;4.65;;;2.20;98.00;;;;;;5052769;28;20025;-69
2022/02/07 11:36:28;;;;;;;11.63;2.90;;;2.40;98.00;;;;;;5035486;28;20430;-70
2022/02/07 11:39:11;;;;;;;18.08;5.28;;;2.30;98.00;;;;;;5039266;28;20067;-71
2022/02/07 11:41:55;;;;;;;17.25;3.75;;;2.30;98.00;;;;;;5038960;28;20040;-70
2022/02/07 11:44:35;;;;;;;13.02;3.60;;;2.20;98.00;;;;;;5050548;28;20017;-70
2022/02/07 11:47:17;;;;;;;16.13;4.60;;;2.00;98.00;;;;;;5034558;28;20183;-70
2022/02/07 11:49:48;;;;;;;10.82;4.13;;;2.00;98.00;;;;;;5049576;28;20025;-70
2022/02/07 11:52:46;;;;;;;16.80;5.30;;;1.90;98.00;;;;;;5054901;28;20116;-70
2022/02/07 11:55:15;;;;;;;13.35;5.70;;;1.80;98.00;;;;;;5036846;28;20419;-69
2022/02/07 11:57:51;;;;;;;13.20;3.95;;;1.80;98.00;;;;;;5049559;28;20025;-68
2022/02/07 12:00:22;;;;;;;14.23;4.00;;;1.70;98.00;;;;;;5036780;28;20052;-70
2022/02/07 12:02:50;;;;;;;13.02;3.90;;;1.90;98.00;;;;;;5034651;28;20504;-70
2022/02/07 12:05:20;;;;;;;15.32;3.60;;;1.90;98.00;;;;;;5052351;28;20079;-72
2022/02/07 12:08:07;;;;;;;14.05;3.55;;;2.00;98.00;;;;;;5054474;28;20043;-70
2022/02/07 12:13:04;;;;;;;9.55;3.60;;;1.90;98.00;;;;;;5038000;28;20021;-70
2022/02/07 12:15:44;;;;;;;16.42;4.13;;;1.90;98.00;;;;;;5036441;28;20088;-70
2022/02/07 12:18:13;;;;;;;11.93;3.83;;;2.00;98.00;;;;;;5047879;28;20025;-70
2022/02/07 12:20:43;;;;;;;14.95;3.67;;;1.90;98.00;;;;;;5042475;28;20321;-70
2022/02/07 12:23:15;;;;;;;14.77;3.65;;;1.90;98.00;;;;;;5034493;28;20022;-69
2022/02/07 12:26:08;;;;;;;15.45;3.92;;;1.80;98.00;;;;;;5035472;28;20038;-70
2022/02/07 12:31:24;;;;;;;16.38;4.57;;;1.70;98.00;;;;;;5036720;28;20060;-68
2022/02/07 12:34:07;;;;;;;19.15;4.40;;;1.70;98.00;;;;;;5036615;28;20032;-68
2022/02/07 12:36:35;;;;;;;18.23;4.95;;;1.60;98.00;;;;;;5035426;28;20032;-70
2022/02/07 12:39:08;;;;;;;17.75;4.45;;;1.60;98.00;;;;;;5038177;28;20508;-71
2022/02/07 12:41:34;;;;;;;20.13;4.03;;;1.60;98.00;;;;;;5036129;28;20064;-71
2022/02/07 12:44:02;;;;;;;13.82;3.78;;;1.70;98.00;;;;;;5039931;28;20295;-70
2022/02/07 12:46:29;;;;;;;12.60;4.05;;;1.60;98.00;;;;;;5044609;28;20039;-70
2022/02/07 12:48:58;;;;;;;13.07;4.43;;;1.60;98.00;;;;;;5041187;28;20029;-70
2022/02/07 12:51:42;;;;;;;12.27;4.45;;;1.60;98.00;;;;;;5052846;28;20029;-70
2022/02/07 12:54:12;;;;;;;15.60;5.50;;;1.70;98.00;;;;;;5049628;28;20013;-70
2022/02/07 12:56:39;;;;;;;10.45;3.95;;;1.60;98.00;;;;;;5038663;28;20029;-70
2022/02/07 12:59:05;;;;;;;14.90;4.10;;;1.70;98.00;;;;;;5050883;28;20070;-70
2022/02/07 13:01:32;;;;;;;10.20;3.70;;;1.70;98.00;;;;;;5058519;28;20040;-70
2022/02/07 13:03:58;;;;;;;9.30;4.18;;;1.70;98.00;;;;;;5057194;28;20069;-70
2022/02/07 13:06:36;;;;;;;9.60;3.67;;;1.80;98.00;;;;;;5053433;28;20021;-70
2022/02/07 13:09:26;;;;;;;14.80;3.33;;;1.90;98.00;;;;;;5043088;28;20352;-69
2022/02/07 13:14:50;;;;;;;11.48;4.10;;;1.90;98.00;;;;;;5037359;28;20033;-70
2022/02/07 13:17:19;;;;;;;10.88;3.92;;;1.90;98.00;;;;;;5040188;28;20074;-70
2022/02/07 13:19:47;;;;;;;17.75;5.65;;;1.90;98.00;;;;;;5044949;28;20025;-70
2022/02/07 13:22:16;;;;;;;10.80;4.45;;;1.90;98.00;;;;;;5038621;28;20147;-69
2022/02/07 13:24:43;;;;;;;14.43;4.47;;;1.90;98.00;;;;;;5040917;28;21660;-71
2022/02/07 13:27:12;;;;;;;10.77;4.43;;;1.90;98.00;;;;;;5045920;28;20048;-68
2022/02/07 13:29:46;;;;;;;17.20;4.43;;;1.90;98.00;;;;;;5037555;28;20381;-70
2022/02/07 13:32:15;;;;;;;11.88;3.90;;;1.90;98.00;;;;;;5044573;28;20061;-71
2022/02/07 13:34:41;;;;;;;12.00;3.85;;;1.90;98.00;;;;;;5042626;28;20107;-70
2022/02/07 13:37:08;;;;;;;14.40;4.90;;;1.90;98.00;;;;;;5043631;28;20025;-70
2022/02/07 13:40:00;;;;;;;10.82;3.53;;;2.00;98.00;;;;;;5038629;28;20044;-71
2022/02/07 13:42:41;;;;;;;11.85;3.35;;;2.00;98.00;;;;;;5039798;28;20042;-70
2022/02/07 13:45:07;;;;;;;12.30;3.35;;;2.00;98.00;;;;;;5036717;28;20036;-70
2022/02/07 13:47:34;;;;;;;14.00;3.17;;;2.10;98.00;;;;;;5041813;28;20480;-70
2022/02/07 13:50:03;;;;;;;13.50;2.92;;;2.20;98.00;;;;;;5045713;28;20496;-70
2022/02/07 13:52:36;;;;;;;14.02;3.78;;;2.10;98.00;;;;;;5046121;28;21594;-70
2022/02/07 13:55:21;;;;;;;13.53;3.50;;;2.20;98.00;;;;;;5041031;28;20029;-70
2022/02/07 13:57:53;;;;;;;15.75;6.10;;;2.20;98.00;;;;;;5049516;28;20053;-70
2022/02/07 14:00:24;;;;;;;11.98;4.20;;;2.20;98.00;;;;;;5038085;28;20087;-71
2022/02/07 14:03:03;;;;;;;14.57;5.07;;;2.40;98.00;;;;;;5037752;28;20029;-70
2022/02/07 14:05:37;;;;;;;12.95;3.50;;;2.50;98.00;;;;;;5045051;28;20035;-70
2022/02/07 14:08:04;;;;;;;12.50;3.15;;;2.60;98.00;;;;;;5039477;28;20029;-69
2022/02/07 14:10:37;;;;;;;14.15;4.13;;;2.60;97.80;;;;;;5039103;28;20112;-69
2022/02/07 14:13:15;;;;;;;11.57;3.55;;;2.50;98.00;;;;;;5038472;28;20039;-70
2022/02/07 14:15:43;;;;;;;15.90;4.82;;;2.50;97.30;;;;;;5044137;28;20466;-70
2022/02/07 14:18:12;;;;;;;17.13;4.03;;;2.40;97.60;;;;;;5037287;28;20542;-71
2022/02/07 14:20:38;;;;;;;16.52;4.30;;;2.50;97.80;;;;;;5039682;28;20462;-73
2022/02/07 14:23:06;;;;;;;11.43;3.40;;;2.50;97.80;;;;;;5037107;28;20120;-71
2022/02/07 14:25:33;;;;;;;14.68;5.47;;;2.60;98.00;;;;;;5037554;28;20460;-71
2022/02/07 14:28:01;;;;;;;16.10;5.50;;;2.60;98.00;;;;;;5039197;28;20380;-71
2022/02/07 14:30:31;;;;;;;12.55;3.70;;;2.60;98.00;;;;;;5038796;28;20033;-70
2022/02/07 14:32:58;;;;;;;13.63;4.30;;;2.60;98.00;;;;;;5046893;28;20039;-70
2022/02/07 14:35:25;;;;;;;11.73;3.30;;;2.50;97.70;;;;;;5039610;28;20033;-72
2022/02/07 14:37:51;;;;;;;9.98;3.30;;;2.40;97.10;;;;;;5036754;28;20025;-71
2022/02/07 14:40:17;;;;;;;10.73;3.97;;;2.40;97.60;;;;;;5039919;28;20139;-71
2022/02/07 14:42:44;;;;;;;9.32;3.42;;;2.40;97.40;;;;;;5039294;28;20031;-70
2022/02/07 14:45:15;;;;;;;14.32;4.45;;;2.50;97.10;;;;;;5042120;28;20063;-71
2022/02/07 14:50:13;;;;;;;16.30;4.55;;;2.50;96.80;;;;;;5049668;28;20376;-71
2022/02/07 14:52:39;;;;;;;14.48;4.03;;;2.60;96.80;;;;;;5054644;28;20036;-70
2022/02/07 14:55:06;;;;;;;17.10;6.47;;;2.50;97.00;;;;;;5056387;28;20204;-72
2022/02/07 14:57:33;;;;;;;14.32;4.63;;;2.60;97.70;;;;;;5042171;28;20021;-72
2022/02/07 14:59:59;;;;;;;10.27;2.50;;;2.70;97.30;;;;;;5035350;28;20033;-72
2022/02/07 15:02:25;;;;;;;12.15;3.40;;;2.60;95.70;;;;;;5047366;28;20025;-71
2022/02/07 15:04:54;;;;;;;28.60;10.20;;;2.50;95.70;;;;;;5052854;28;20112;-71
2022/02/07 15:07:20;;;;;;;14.48;5.03;;;2.40;96.80;;;;;;5044865;28;20098;-72
2022/02/07 15:09:47;;;;;;;16.52;5.63;;;2.30;96.60;;;;;;5039032;28;20330;-71
2022/02/07 15:12:13;;;;;;;17.25;6.25;;;2.30;96.70;;;;;;5044139;28;20078;-72
2022/02/07 15:14:40;;;;;;;19.50;6.88;;;2.30;96.10;;;;;;5055879;28;20025;-71
2022/02/07 15:17:06;;;;;;;11.18;5.05;;;2.40;96.20;;;;;;5045514;28;20489;-71
2022/02/07 15:19:32;;;;;;;29.05;11.45;;;2.50;95.30;;;;;;5036125;28;20100;-71
2022/02/07 15:22:03;;;;;;;18.30;9.25;;;2.50;95.00;;;;;;5048872;28;20075;-70
2022/02/07 15:24:31;;;;;;;12.13;5.20;;;2.50;95.50;;;;;;5037128;28;20026;-71
2022/02/07 15:26:56;;;;;;;16.33;4.80;;;2.50;95.30;;;;;;5039309;28;20114;-71
2022/02/07 15:29:22;;;;;;;13.35;5.95;;;2.50;95.40;;;;;;5055965;28;20100;-72
2022/02/07 15:31:55;;;;;;;16.13;6.22;;;2.40;96.30;;;;;;5050257;28;20033;-72
2022/02/07 15:34:21;;;;;;;14.90;5.07;;;2.30;96.00;;;;;;5035897;28;20029;-71
2022/02/07 15:36:47;;;;;;;16.98;7.00;;;2.20;96.50;;;;;;5036833;28;20318;-73
2022/02/07 15:39:14;;;;;;;22.05;9.70;;;2.10;97.10;;;;;;5049779;28;20025;-74
2022/02/07 15:41:43;;;;;;;18.08;5.80;;;2.10;97.60;;;;;;5051792;28;20040;-72
2022/02/07 15:44:12;;;;;;;12.85;5.43;;;2.20;97.10;;;;;;5035728;28;20104;-72